• Join FlightAware (Why Join?)
  • Login
  • US Flag 
09:39PM EDT


 

Airport Tracker/Info


-or-


 

Live Flight TrackerFlight Track Log ✈ JBU1329 ✈ 14-Apr-2013 ✈ KBOS - KBWI

Flight Track Log - Related Links

Times and Time Zones

All times are in EDT time to prevent confusion due to time zone crossing. See the JBU1329 flight status page for this flight to view local times or setup timezone preferences in your user account.

Time Position Orientation Groundspeed Altitude Reporting Facility
EDT Latitude Longitude Course Direction KTS MPH feet Rate Location/Type
08:22AM 42.3500 -71.0167 228° Southwest 151 174 700  Level KA90
08:23AM 42.3500 -71.0500 270° West 165 190 2,100 2,220 Climbing KA90
08:24AM 42.3000 -71.1000 216° Southwest 234 269 4,600 3,120 Climbing KA90
08:25AM 42.4142 -70.7500 180° South  Level FlightAware Approximate
08:26AM 42.3333 -70.7233 172° South  Level FlightAware Approximate
08:26AM 42.2544 -71.2481 247° West 246 283 10,700  Level Boston Center
08:27AM 42.2653 -70.7688 228° Southwest  Level FlightAware Approximate
08:27AM 42.2367 -71.3381 255° West 265 305 12,600  Level Boston Center
08:28AM 42.2086 -71.4731 254° West 311 358 16,300 3,000 Climbing Boston Center
08:29AM 42.1825 -71.5856 253° West 316 364 18,600 2,400 Climbing Boston Center
08:30AM 42.1564 -71.7092 254° West 328 377 21,200 2,460 Climbing Boston Center
08:31AM 42.1319 -71.8269 254° West 328 377 23,500 2,040 Climbing Boston Center
08:32AM 42.1033 -71.9419 251° West 328 377 25,300 1,680 Climbing Boston Center
08:33AM 42.0497 -72.0542 237° Southwest 333 383 26,900 1,380 Climbing Boston Center
08:34AM 41.9936 -72.1692 237° Southwest 358 412 28,200 1,380 Climbing Boston Center
08:35AM 41.9375 -72.2839 237° Southwest 370 426 29,700 1,440 Climbing Boston Center
08:36AM 41.8794 -72.3983 236° Southwest 375 432 31,100 1,140 Climbing Boston Center
08:37AM 41.8231 -72.5125 236° Southwest 375 432 32,000 420 Climbing Boston Center
08:38AM 41.7625 -72.6350 236° Southwest 380 437 32,000  Level Boston Center
08:39AM 41.6997 -72.7569 235° Southwest 391 450 32,000  Level Boston Center
08:40AM 41.6408 -72.8761 237° Southwest 391 450 32,000  Level Boston Center
08:41AM 41.5800 -73.0006 237° Southwest 396 456 32,000  Level Boston Center
08:43AM 41.4478 -73.2594 236° Southwest 407 468 32,000  Level New York Center
08:44AM 41.3847 -73.3844 236° Southwest 412 474 32,000  Level New York Center
08:45AM 41.3214 -73.5089 236° Southwest 412 474 32,000  Level New York Center
08:46AM 41.2539 -73.6331 234° Southwest 412 474 32,000  Level New York Center
08:47AM 41.1844 -73.7486 231° Southwest 412 474 32,000  Level New York Center
08:48AM 41.1169 -73.8639 232° Southwest 412 474 32,000  Level New York Center
08:49AM 41.0472 -73.9792 231° Southwest 407 468 32,000  Level New York Center
08:50AM 40.9772 -74.0967 232° Southwest 407 468 32,000 -480 Level New York Center
08:51AM 40.8989 -74.2192 230° Southwest 407 468 31,100 -1,500 Descending New York Center
08:52AM 40.8308 -74.3308 231° Southwest 407 468 29,000 -1,560 Descending New York Center
08:53AM 40.7650 -74.4397 231° Southwest 402 463 28,000 -660 Descending New York Center
08:54AM 40.6992 -74.5483 231° Southwest 397 457 27,800 -600 Descending New York Center
08:55AM 40.6353 -74.6569 232° Southwest 392 451 26,900 -900 Descending New York Center
08:56AM 40.5736 -74.7547 230° Southwest 387 445 26,000 -900 Descending New York Center
08:57AM 40.5014 -74.8569 227° Southwest 387 445 25,100 -1,140 Descending New York Center
08:58AM 40.4311 -74.9592 228° Southwest 387 445 23,800 -1,920 Descending New York Center
08:59AM 40.3608 -75.0583 227° Southwest 382 440 21,400 -2,460 Descending New York Center
09:00AM 40.2858 -75.1653 227° Southwest 371 427 18,900 -1,740 Descending New York Center
09:01AM 40.2200 -75.2561 227° Southwest 358 412 18,000 -480 Descending New York Center
09:02AM 40.1583 -75.3392 226° Southwest 358 412 18,000  Level New York Center
09:03AM 40.0836 -75.4400 226° Southwest 358 412 18,000  Level New York Center
09:04AM 40.0261 -75.5203 227° Southwest 358 412 18,000  Level New York Center
09:05AM 39.9533 -75.6208 227° Southwest 358 412 18,000  Level New York Center
09:06AM 39.8975 -75.7089 230° Southwest 358 412 18,000 -360 Level New York Center
09:07AM 39.8408 -75.8186 236° Southwest 347 399 17,300 -1,380 Descending New York Center
09:09AM 39.7167 -76.0333 233° Southwest 269 310 13,300 -1,500 Descending Potomac TRACON
09:10AM 39.6833 -76.1333 247° West 266 306 12,000 -1,260 Descending Potomac TRACON
09:11AM 39.6167 -76.2000 218° Southwest 275 316 10,700 -1,560 Descending Potomac TRACON
09:12AM 39.5667 -76.2500 218° Southwest 266 306 9,100 -1,620 Descending Potomac TRACON
09:13AM 39.5167 -76.3167 226° Southwest 258 297 7,500 -1,500 Descending Potomac TRACON
09:14AM 39.4667 -76.3500 207° Southwest 251 289 6,300 -1,320 Descending Potomac TRACON
09:15AM 39.4000 -76.4000 210° Southwest 258 297 5,000 -1,140 Descending Potomac TRACON
09:16AM 39.3167 -76.4000 180° South 259 298 4,000 -540 Descending Potomac TRACON
09:17AM 39.2667 -76.4167 194° South 263 303 4,000  Level Potomac TRACON
09:18AM 39.2000 -76.4167 180° South 261 300 4,000  Level Potomac TRACON
09:19AM 39.1333 -76.4167 180° South 243 280 4,000  Level Potomac TRACON
09:20AM 39.0667 -76.4333 191° South 218 251 4,000 -480 Level Potomac TRACON
09:21AM 39.0333 -76.4833 229° Southwest 201 231 3,100 -720 Descending Potomac TRACON
09:22AM 39.0333 -76.5500 270° West 182 209 2,600 -600 Descending Potomac TRACON
09:23AM 39.0667 -76.5833 322° Northwest 163 188 2,000 -540 Descending Potomac TRACON
09:24AM 39.1000 -76.6167 322° Northwest 145 167 1,600 -480 Descending Potomac TRACON
09:25AM 39.1333 -76.6333 339° North 130 150 1,100 -600 Descending Potomac TRACON